sensor_id;sensor_type;location;lat;lon;timestamp;P1;durP1;ratioP1;P2;durP2;ratioP2
16826;SDS011;8530;49.540;8.576;2022-10-30T00:01:15;16.60;;;9.73;;
16826;SDS011;8530;49.540;8.576;2022-10-30T00:03:41;17.73;;;10.10;;
16826;SDS011;8530;49.540;8.576;2022-10-30T00:06:09;22.80;;;11.80;;
16826;SDS011;8530;49.540;8.576;2022-10-30T00:08:36;18.33;;;11.03;;
16826;SDS011;8530;49.540;8.576;2022-10-30T00:11:04;25.10;;;11.57;;
16826;SDS011;8530;49.540;8.576;2022-10-30T00:13:33;24.43;;;11.87;;
16826;SDS011;8530;49.540;8.576;2022-10-30T00:16:01;24.40;;;11.53;;
16826;SDS011;8530;49.540;8.576;2022-10-30T00:18:30;25.17;;;11.03;;
16826;SDS011;8530;49.540;8.576;2022-10-30T00:21:02;15.83;;;9.23;;
16826;SDS011;8530;49.540;8.576;2022-10-30T00:23:34;11.77;;;9.10;;
16826;SDS011;8530;49.540;8.576;2022-10-30T00:26:01;16.80;;;10.60;;
16826;SDS011;8530;49.540;8.576;2022-10-30T00:28:29;16.70;;;11.10;;
16826;SDS011;8530;49.540;8.576;2022-10-30T00:30:57;19.47;;;11.70;;
16826;SDS011;8530;49.540;8.576;2022-10-30T00:33:25;23.53;;;12.90;;
16826;SDS011;8530;49.540;8.576;2022-10-30T00:35:51;24.17;;;12.43;;
16826;SDS011;8530;49.540;8.576;2022-10-30T00:38:18;22.87;;;11.07;;
16826;SDS011;8530;49.540;8.576;2022-10-30T00:40:46;21.10;;;9.70;;
16826;SDS011;8530;49.540;8.576;2022-10-30T00:43:26;15.40;;;9.27;;
16826;SDS011;8530;49.540;8.576;2022-10-30T00:45:58;18.23;;;9.57;;
16826;SDS011;8530;49.540;8.576;2022-10-30T00:48:27;15.43;;;9.47;;
16826;SDS011;8530;49.540;8.576;2022-10-30T00:50:54;14.50;;;8.97;;
16826;SDS011;8530;49.540;8.576;2022-10-30T00:53:24;34.00;;;10.13;;
16826;SDS011;8530;49.540;8.576;2022-10-30T00:55:54;10.73;;;9.27;;
16826;SDS011;8530;49.540;8.576;2022-10-30T00:58:23;16.07;;;9.70;;
16826;SDS011;8530;49.540;8.576;2022-10-30T01:00:55;24.80;;;10.20;;
16826;SDS011;8530;49.540;8.576;2022-10-30T01:03:22;20.50;;;8.70;;
16826;SDS011;8530;49.540;8.576;2022-10-30T01:05:52;9.70;;;7.93;;
16826;SDS011;8530;49.540;8.576;2022-10-30T01:08:22;18.13;;;9.37;;
16826;SDS011;8530;49.540;8.576;2022-10-30T01:10:49;12.20;;;9.17;;
16826;SDS011;8530;49.540;8.576;2022-10-30T01:13:18;11.97;;;8.77;;
16826;SDS011;8530;49.540;8.576;2022-10-30T01:15:49;10.73;;;8.30;;
16826;SDS011;8530;49.540;8.576;2022-10-30T01:18:28;10.70;;;8.50;;
16826;SDS011;8530;49.540;8.576;2022-10-30T01:21:05;17.50;;;9.00;;
16826;SDS011;8530;49.540;8.576;2022-10-30T01:23:47;16.00;;;9.57;;
16826;SDS011;8530;49.540;8.576;2022-10-30T01:26:27;11.97;;;9.70;;
16826;SDS011;8530;49.540;8.576;2022-10-30T01:29:05;14.40;;;8.00;;
16826;SDS011;8530;49.540;8.576;2022-10-30T01:31:40;18.00;;;9.33;;
16826;SDS011;8530;49.540;8.576;2022-10-30T01:34:17;15.20;;;9.17;;
16826;SDS011;8530;49.540;8.576;2022-10-30T01:36:48;17.63;;;10.53;;
16826;SDS011;8530;49.540;8.576;2022-10-30T01:39:21;13.73;;;9.40;;
16826;SDS011;8530;49.540;8.576;2022-10-30T01:41:51;13.00;;;9.20;;
16826;SDS011;8530;49.540;8.576;2022-10-30T01:44:20;16.90;;;8.97;;
16826;SDS011;8530;49.540;8.576;2022-10-30T01:46:57;12.17;;;8.30;;
16826;SDS011;8530;49.540;8.576;2022-10-30T01:49:46;16.20;;;9.20;;
16826;SDS011;8530;49.540;8.576;2022-10-30T01:52:27;16.90;;;8.93;;
16826;SDS011;8530;49.540;8.576;2022-10-30T01:55:03;12.90;;;8.67;;
16826;SDS011;8530;49.540;8.576;2022-10-30T01:57:39;14.20;;;8.53;;
16826;SDS011;8530;49.540;8.576;2022-10-30T02:00:15;11.30;;;9.67;;
16826;SDS011;8530;49.540;8.576;2022-10-30T02:02:44;14.03;;;9.70;;
16826;SDS011;8530;49.540;8.576;2022-10-30T02:05:13;21.07;;;10.27;;
16826;SDS011;8530;49.540;8.576;2022-10-30T02:07:47;14.20;;;9.00;;
16826;SDS011;8530;49.540;8.576;2022-10-30T02:10:13;20.87;;;8.70;;
16826;SDS011;8530;49.540;8.576;2022-10-30T02:12:41;23.70;;;10.70;;
16826;SDS011;8530;49.540;8.576;2022-10-30T02:15:08;12.83;;;8.90;;
16826;SDS011;8530;49.540;8.576;2022-10-30T02:17:37;23.23;;;10.70;;
16826;SDS011;8530;49.540;8.576;2022-10-30T02:20:05;17.43;;;9.97;;
16826;SDS011;8530;49.540;8.576;2022-10-30T02:22:35;15.27;;;10.03;;
16826;SDS011;8530;49.540;8.576;2022-10-30T02:25:02;14.50;;;10.47;;
16826;SDS011;8530;49.540;8.576;2022-10-30T02:27:28;15.93;;;10.17;;
16826;SDS011;8530;49.540;8.576;2022-10-30T02:29:56;15.80;;;10.50;;
16826;SDS011;8530;49.540;8.576;2022-10-30T02:32:24;15.70;;;9.80;;
16826;SDS011;8530;49.540;8.576;2022-10-30T02:34:51;14.83;;;11.00;;
16826;SDS011;8530;49.540;8.576;2022-10-30T02:37:18;16.30;;;9.70;;
16826;SDS011;8530;49.540;8.576;2022-10-30T02:39:46;18.97;;;10.70;;
16826;SDS011;8530;49.540;8.576;2022-10-30T02:42:13;14.83;;;9.60;;
16826;SDS011;8530;49.540;8.576;2022-10-30T02:44:40;19.90;;;11.20;;
16826;SDS011;8530;49.540;8.576;2022-10-30T02:47:06;16.60;;;10.33;;
16826;SDS011;8530;49.540;8.576;2022-10-30T02:49:33;13.90;;;9.80;;
16826;SDS011;8530;49.540;8.576;2022-10-30T02:52:00;14.80;;;9.67;;
16826;SDS011;8530;49.540;8.576;2022-10-30T02:54:27;16.00;;;8.93;;
16826;SDS011;8530;49.540;8.576;2022-10-30T02:56:56;17.37;;;9.60;;
16826;SDS011;8530;49.540;8.576;2022-10-30T02:59:22;12.40;;;10.20;;
16826;SDS011;8530;49.540;8.576;2022-10-30T03:01:49;17.07;;;9.83;;
16826;SDS011;8530;49.540;8.576;2022-10-30T03:04:16;20.90;;;10.70;;
16826;SDS011;8530;49.540;8.576;2022-10-30T03:06:43;12.63;;;8.90;;
16826;SDS011;8530;49.540;8.576;2022-10-30T03:09:10;18.73;;;10.13;;
16826;SDS011;8530;49.540;8.576;2022-10-30T03:11:38;18.07;;;10.80;;
16826;SDS011;8530;49.540;8.576;2022-10-30T03:14:06;24.63;;;11.70;;
16826;SDS011;8530;49.540;8.576;2022-10-30T03:16:33;14.20;;;10.90;;
16826;SDS011;8530;49.540;8.576;2022-10-30T03:19:02;14.77;;;9.43;;
16826;SDS011;8530;49.540;8.576;2022-10-30T03:21:29;11.97;;;9.60;;
16826;SDS011;8530;49.540;8.576;2022-10-30T03:23:56;20.70;;;11.33;;
16826;SDS011;8530;49.540;8.576;2022-10-30T03:26:23;19.03;;;9.67;;
16826;SDS011;8530;49.540;8.576;2022-10-30T03:28:50;16.77;;;10.13;;
16826;SDS011;8530;49.540;8.576;2022-10-30T03:31:18;16.97;;;10.40;;
16826;SDS011;8530;49.540;8.576;2022-10-30T03:33:45;14.07;;;8.80;;
16826;SDS011;8530;49.540;8.576;2022-10-30T03:36:12;12.90;;;9.10;;
16826;SDS011;8530;49.540;8.576;2022-10-30T03:38:40;16.23;;;10.10;;
16826;SDS011;8530;49.540;8.576;2022-10-30T03:41:07;17.90;;;10.83;;
16826;SDS011;8530;49.540;8.576;2022-10-30T03:43:34;16.27;;;8.20;;
16826;SDS011;8530;49.540;8.576;2022-10-30T03:46:00;12.03;;;8.70;;
16826;SDS011;8530;49.540;8.576;2022-10-30T03:48:28;15.40;;;10.37;;
16826;SDS011;8530;49.540;8.576;2022-10-30T03:50:56;18.93;;;9.60;;
16826;SDS011;8530;49.540;8.576;2022-10-30T03:53:24;23.63;;;11.87;;
16826;SDS011;8530;49.540;8.576;2022-10-30T03:55:55;22.43;;;12.07;;
16826;SDS011;8530;49.540;8.576;2022-10-30T03:58:23;16.50;;;10.47;;
16826;SDS011;8530;49.540;8.576;2022-10-30T04:00:50;21.90;;;11.00;;
16826;SDS011;8530;49.540;8.576;2022-10-30T04:03:17;12.77;;;9.03;;
16826;SDS011;8530;49.540;8.576;2022-10-30T04:05:46;24.40;;;12.03;;
16826;SDS011;8530;49.540;8.576;2022-10-30T04:08:15;17.63;;;9.97;;
16826;SDS011;8530;49.540;8.576;2022-10-30T04:10:43;26.33;;;10.03;;
16826;SDS011;8530;49.540;8.576;2022-10-30T04:13:11;17.67;;;11.53;;
16826;SDS011;8530;49.540;8.576;2022-10-30T04:15:39;27.03;;;16.30;;
16826;SDS011;8530;49.540;8.576;2022-10-30T04:18:06;24.20;;;15.03;;
16826;SDS011;8530;49.540;8.576;2022-10-30T04:20:35;24.77;;;14.63;;
16826;SDS011;8530;49.540;8.576;2022-10-30T04:23:04;29.10;;;15.90;;
16826;SDS011;8530;49.540;8.576;2022-10-30T04:25:33;20.23;;;13.20;;
16826;SDS011;8530;49.540;8.576;2022-10-30T04:28:01;25.13;;;16.80;;
16826;SDS011;8530;49.540;8.576;2022-10-30T04:30:28;22.27;;;16.83;;
16826;SDS011;8530;49.540;8.576;2022-10-30T04:32:59;25.20;;;19.47;;
16826;SDS011;8530;49.540;8.576;2022-10-30T04:35:27;26.90;;;18.87;;
16826;SDS011;8530;49.540;8.576;2022-10-30T04:37:56;29.70;;;18.03;;
16826;SDS011;8530;49.540;8.576;2022-10-30T04:40:26;24.07;;;14.27;;
16826;SDS011;8530;49.540;8.576;2022-10-30T04:42:54;16.57;;;12.97;;
16826;SDS011;8530;49.540;8.576;2022-10-30T04:45:21;23.77;;;16.90;;
16826;SDS011;8530;49.540;8.576;2022-10-30T04:47:48;22.87;;;15.40;;
16826;SDS011;8530;49.540;8.576;2022-10-30T04:50:15;16.37;;;12.97;;
16826;SDS011;8530;49.540;8.576;2022-10-30T04:52:42;16.73;;;11.53;;
16826;SDS011;8530;49.540;8.576;2022-10-30T04:55:10;20.23;;;12.90;;
16826;SDS011;8530;49.540;8.576;2022-10-30T04:57:38;27.57;;;13.73;;
16826;SDS011;8530;49.540;8.576;2022-10-30T05:00:06;22.57;;;13.13;;
16826;SDS011;8530;49.540;8.576;2022-10-30T05:02:34;18.70;;;13.10;;
16826;SDS011;8530;49.540;8.576;2022-10-30T05:05:01;21.00;;;14.43;;
16826;SDS011;8530;49.540;8.576;2022-10-30T05:07:28;14.43;;;11.83;;
16826;SDS011;8530;49.540;8.576;2022-10-30T05:09:55;15.33;;;11.83;;
16826;SDS011;8530;49.540;8.576;2022-10-30T05:12:22;19.83;;;12.53;;
16826;SDS011;8530;49.540;8.576;2022-10-30T05:14:50;25.23;;;12.03;;
16826;SDS011;8530;49.540;8.576;2022-10-30T05:17:17;17.60;;;12.20;;
16826;SDS011;8530;49.540;8.576;2022-10-30T05:19:44;21.77;;;12.00;;
16826;SDS011;8530;49.540;8.576;2022-10-30T05:22:11;18.00;;;11.50;;
16826;SDS011;8530;49.540;8.576;2022-10-30T05:24:38;19.57;;;11.37;;
16826;SDS011;8530;49.540;8.576;2022-10-30T05:27:05;19.57;;;11.47;;
16826;SDS011;8530;49.540;8.576;2022-10-30T05:29:32;20.70;;;11.50;;
16826;SDS011;8530;49.540;8.576;2022-10-30T05:32:01;20.67;;;11.43;;
16826;SDS011;8530;49.540;8.576;2022-10-30T05:34:28;16.87;;;12.67;;
16826;SDS011;8530;49.540;8.576;2022-10-30T05:36:55;22.33;;;12.33;;
16826;SDS011;8530;49.540;8.576;2022-10-30T05:39:22;19.03;;;11.20;;
16826;SDS011;8530;49.540;8.576;2022-10-30T05:41:49;17.50;;;10.87;;
16826;SDS011;8530;49.540;8.576;2022-10-30T05:44:16;16.50;;;10.60;;
16826;SDS011;8530;49.540;8.576;2022-10-30T05:46:42;29.23;;;11.40;;
16826;SDS011;8530;49.540;8.576;2022-10-30T05:49:10;22.90;;;13.27;;
16826;SDS011;8530;49.540;8.576;2022-10-30T05:51:37;15.30;;;10.30;;
16826;SDS011;8530;49.540;8.576;2022-10-30T05:54:04;13.07;;;10.83;;
16826;SDS011;8530;49.540;8.576;2022-10-30T05:56:31;17.77;;;11.30;;
16826;SDS011;8530;49.540;8.576;2022-10-30T05:58:58;19.00;;;10.60;;
16826;SDS011;8530;49.540;8.576;2022-10-30T06:01:25;22.70;;;12.20;;
16826;SDS011;8530;49.540;8.576;2022-10-30T06:03:51;12.27;;;9.67;;
16826;SDS011;8530;49.540;8.576;2022-10-30T06:06:19;18.50;;;11.43;;
16826;SDS011;8530;49.540;8.576;2022-10-30T06:08:46;19.17;;;10.00;;
16826;SDS011;8530;49.540;8.576;2022-10-30T06:11:13;19.10;;;11.63;;
16826;SDS011;8530;49.540;8.576;2022-10-30T06:13:40;14.93;;;10.10;;
16826;SDS011;8530;49.540;8.576;2022-10-30T06:16:07;14.60;;;10.17;;
16826;SDS011;8530;49.540;8.576;2022-10-30T06:18:34;14.67;;;9.40;;
16826;SDS011;8530;49.540;8.576;2022-10-30T06:21:00;13.33;;;9.73;;
16826;SDS011;8530;49.540;8.576;2022-10-30T06:23:28;17.37;;;10.50;;
16826;SDS011;8530;49.540;8.576;2022-10-30T06:25:55;15.20;;;10.90;;
16826;SDS011;8530;49.540;8.576;2022-10-30T06:28:22;13.03;;;10.07;;
16826;SDS011;8530;49.540;8.576;2022-10-30T06:30:49;17.20;;;11.77;;
16826;SDS011;8530;49.540;8.576;2022-10-30T06:33:15;14.60;;;11.33;;
16826;SDS011;8530;49.540;8.576;2022-10-30T06:35:42;17.73;;;10.03;;
16826;SDS011;8530;49.540;8.576;2022-10-30T06:38:09;13.63;;;10.00;;
16826;SDS011;8530;49.540;8.576;2022-10-30T06:40:37;12.80;;;10.13;;
16826;SDS011;8530;49.540;8.576;2022-10-30T06:43:04;13.27;;;10.47;;
16826;SDS011;8530;49.540;8.576;2022-10-30T06:45:31;25.53;;;10.93;;
16826;SDS011;8530;49.540;8.576;2022-10-30T06:47:58;19.10;;;11.83;;
16826;SDS011;8530;49.540;8.576;2022-10-30T06:50:25;23.13;;;10.90;;
16826;SDS011;8530;49.540;8.576;2022-10-30T06:52:52;21.90;;;10.47;;
16826;SDS011;8530;49.540;8.576;2022-10-30T06:55:20;17.90;;;10.83;;
16826;SDS011;8530;49.540;8.576;2022-10-30T06:57:53;12.97;;;10.30;;
16826;SDS011;8530;49.540;8.576;2022-10-30T07:00:20;26.60;;;10.17;;
16826;SDS011;8530;49.540;8.576;2022-10-30T07:02:53;20.43;;;12.03;;
16826;SDS011;8530;49.540;8.576;2022-10-30T07:05:24;19.57;;;10.37;;
16826;SDS011;8530;49.540;8.576;2022-10-30T07:07:50;19.43;;;9.90;;
16826;SDS011;8530;49.540;8.576;2022-10-30T07:10:17;15.60;;;11.00;;
16826;SDS011;8530;49.540;8.576;2022-10-30T07:12:49;19.37;;;11.33;;
16826;SDS011;8530;49.540;8.576;2022-10-30T07:15:18;15.73;;;9.63;;
16826;SDS011;8530;49.540;8.576;2022-10-30T07:18:01;17.67;;;10.10;;
16826;SDS011;8530;49.540;8.576;2022-10-30T07:20:29;14.20;;;9.17;;
16826;SDS011;8530;49.540;8.576;2022-10-30T07:22:57;16.60;;;10.40;;
16826;SDS011;8530;49.540;8.576;2022-10-30T07:25:24;11.40;;;8.37;;
16826;SDS011;8530;49.540;8.576;2022-10-30T07:27:51;20.37;;;11.73;;
16826;SDS011;8530;49.540;8.576;2022-10-30T07:30:21;18.60;;;11.77;;
16826;SDS011;8530;49.540;8.576;2022-10-30T07:33:02;16.33;;;10.37;;
16826;SDS011;8530;49.540;8.576;2022-10-30T07:35:31;14.37;;;9.67;;
16826;SDS011;8530;49.540;8.576;2022-10-30T07:38:01;15.43;;;10.20;;
16826;SDS011;8530;49.540;8.576;2022-10-30T07:40:29;14.93;;;10.13;;
16826;SDS011;8530;49.540;8.576;2022-10-30T07:42:55;13.40;;;9.73;;
16826;SDS011;8530;49.540;8.576;2022-10-30T07:45:24;19.33;;;11.03;;
16826;SDS011;8530;49.540;8.576;2022-10-30T07:47:51;15.03;;;9.60;;
16826;SDS011;8530;49.540;8.576;2022-10-30T07:50:18;15.00;;;9.90;;
16826;SDS011;8530;49.540;8.576;2022-10-30T07:52:45;18.93;;;9.90;;
16826;SDS011;8530;49.540;8.576;2022-10-30T07:55:13;19.40;;;9.33;;
16826;SDS011;8530;49.540;8.576;2022-10-30T07:57:43;16.40;;;8.77;;
16826;SDS011;8530;49.540;8.576;2022-10-30T08:00:10;14.23;;;9.73;;
16826;SDS011;8530;49.540;8.576;2022-10-30T08:02:40;11.00;;;8.57;;
16826;SDS011;8530;49.540;8.576;2022-10-30T08:05:07;17.50;;;8.60;;
16826;SDS011;8530;49.540;8.576;2022-10-30T08:07:35;17.20;;;11.23;;
16826;SDS011;8530;49.540;8.576;2022-10-30T08:10:03;14.73;;;9.00;;
16826;SDS011;8530;49.540;8.576;2022-10-30T08:12:31;14.60;;;10.33;;
16826;SDS011;8530;49.540;8.576;2022-10-30T08:14:58;13.77;;;9.40;;
16826;SDS011;8530;49.540;8.576;2022-10-30T08:17:25;14.20;;;9.83;;
16826;SDS011;8530;49.540;8.576;2022-10-30T08:19:53;16.67;;;9.57;;
16826;SDS011;8530;49.540;8.576;2022-10-30T08:22:21;16.30;;;9.57;;
16826;SDS011;8530;49.540;8.576;2022-10-30T08:24:48;14.20;;;8.53;;
16826;SDS011;8530;49.540;8.576;2022-10-30T08:27:14;21.53;;;9.70;;
16826;SDS011;8530;49.540;8.576;2022-10-30T08:29:41;14.33;;;9.40;;
16826;SDS011;8530;49.540;8.576;2022-10-30T08:32:08;16.70;;;7.77;;
16826;SDS011;8530;49.540;8.576;2022-10-30T08:34:34;20.17;;;9.10;;
16826;SDS011;8530;49.540;8.576;2022-10-30T08:37:04;10.93;;;8.37;;
16826;SDS011;8530;49.540;8.576;2022-10-30T08:39:32;12.67;;;8.80;;
16826;SDS011;8530;49.540;8.576;2022-10-30T08:41:58;17.47;;;9.60;;
16826;SDS011;8530;49.540;8.576;2022-10-30T08:44:27;16.90;;;10.20;;
16826;SDS011;8530;49.540;8.576;2022-10-30T08:46:54;13.23;;;9.33;;
16826;SDS011;8530;49.540;8.576;2022-10-30T08:49:21;15.87;;;10.37;;
16826;SDS011;8530;49.540;8.576;2022-10-30T08:51:48;28.40;;;13.53;;
16826;SDS011;8530;49.540;8.576;2022-10-30T08:54:16;13.90;;;10.63;;
16826;SDS011;8530;49.540;8.576;2022-10-30T08:56:42;17.10;;;10.10;;
16826;SDS011;8530;49.540;8.576;2022-10-30T08:59:09;16.17;;;9.90;;
16826;SDS011;8530;49.540;8.576;2022-10-30T09:01:36;12.80;;;9.73;;
16826;SDS011;8530;49.540;8.576;2022-10-30T09:04:02;16.53;;;9.57;;
16826;SDS011;8530;49.540;8.576;2022-10-30T09:06:29;16.03;;;8.77;;
16826;SDS011;8530;49.540;8.576;2022-10-30T09:08:57;15.03;;;9.70;;
16826;SDS011;8530;49.540;8.576;2022-10-30T09:11:31;19.27;;;9.30;;
16826;SDS011;8530;49.540;8.576;2022-10-30T09:13:58;17.87;;;9.27;;
16826;SDS011;8530;49.540;8.576;2022-10-30T09:16:25;14.73;;;8.70;;
16826;SDS011;8530;49.540;8.576;2022-10-30T09:18:51;15.40;;;10.10;;
16826;SDS011;8530;49.540;8.576;2022-10-30T09:21:18;17.43;;;9.67;;
16826;SDS011;8530;49.540;8.576;2022-10-30T09:23:45;17.90;;;8.90;;
16826;SDS011;8530;49.540;8.576;2022-10-30T09:26:12;15.23;;;9.00;;
16826;SDS011;8530;49.540;8.576;2022-10-30T09:28:40;13.17;;;9.60;;
16826;SDS011;8530;49.540;8.576;2022-10-30T09:31:07;14.93;;;7.90;;
16826;SDS011;8530;49.540;8.576;2022-10-30T09:33:34;14.37;;;8.77;;
16826;SDS011;8530;49.540;8.576;2022-10-30T09:36:00;18.97;;;9.00;;
16826;SDS011;8530;49.540;8.576;2022-10-30T09:38:27;11.23;;;8.07;;
16826;SDS011;8530;49.540;8.576;2022-10-30T09:41:04;20.20;;;10.57;;
16826;SDS011;8530;49.540;8.576;2022-10-30T09:43:48;20.77;;;9.33;;
16826;SDS011;8530;49.540;8.576;2022-10-30T09:46:29;14.57;;;7.40;;
16826;SDS011;8530;49.540;8.576;2022-10-30T09:52:19;15.27;;;8.43;;
16826;SDS011;8530;49.540;8.576;2022-10-30T09:57:46;13.00;;;7.93;;
16826;SDS011;8530;49.540;8.576;2022-10-30T10:00:26;17.90;;;8.70;;
16826;SDS011;8530;49.540;8.576;2022-10-30T10:03:04;21.60;;;10.07;;
16826;SDS011;8530;49.540;8.576;2022-10-30T10:05:43;19.17;;;9.30;;
16826;SDS011;8530;49.540;8.576;2022-10-30T10:08:14;20.13;;;9.20;;
16826;SDS011;8530;49.540;8.576;2022-10-30T10:10:44;25.27;;;8.33;;
16826;SDS011;8530;49.540;8.576;2022-10-30T10:13:15;13.97;;;8.33;;
16826;SDS011;8530;49.540;8.576;2022-10-30T10:15:54;19.70;;;7.73;;
16826;SDS011;8530;49.540;8.576;2022-10-30T10:18:24;27.00;;;7.07;;
16826;SDS011;8530;49.540;8.576;2022-10-30T10:20:55;13.17;;;8.60;;
16826;SDS011;8530;49.540;8.576;2022-10-30T10:23:29;12.27;;;6.13;;
16826;SDS011;8530;49.540;8.576;2022-10-30T10:26:03;16.90;;;8.67;;
16826;SDS011;8530;49.540;8.576;2022-10-30T10:28:41;8.57;;;5.50;;
16826;SDS011;8530;49.540;8.576;2022-10-30T10:31:23;14.77;;;6.00;;
16826;SDS011;8530;49.540;8.576;2022-10-30T10:33:59;14.40;;;6.43;;
16826;SDS011;8530;49.540;8.576;2022-10-30T10:36:38;16.37;;;6.30;;
16826;SDS011;8530;49.540;8.576;2022-10-30T10:39:15;9.17;;;5.03;;
16826;SDS011;8530;49.540;8.576;2022-10-30T10:41:55;21.73;;;5.77;;
16826;SDS011;8530;49.540;8.576;2022-10-30T10:44:33;13.40;;;6.50;;
16826;SDS011;8530;49.540;8.576;2022-10-30T10:47:25;16.03;;;5.70;;
16826;SDS011;8530;49.540;8.576;2022-10-30T10:50:14;18.47;;;8.27;;
16826;SDS011;8530;49.540;8.576;2022-10-30T10:52:46;10.90;;;5.40;;
16826;SDS011;8530;49.540;8.576;2022-10-30T10:55:18;22.30;;;5.73;;
16826;SDS011;8530;49.540;8.576;2022-10-30T10:57:47;13.80;;;7.27;;
16826;SDS011;8530;49.540;8.576;2022-10-30T11:00:16;15.60;;;6.97;;
16826;SDS011;8530;49.540;8.576;2022-10-30T11:02:48;16.43;;;5.60;;
16826;SDS011;8530;49.540;8.576;2022-10-30T11:05:24;11.13;;;5.00;;
16826;SDS011;8530;49.540;8.576;2022-10-30T11:07:56;21.13;;;6.47;;
16826;SDS011;8530;49.540;8.576;2022-10-30T11:10:27;14.13;;;6.33;;
16826;SDS011;8530;49.540;8.576;2022-10-30T11:12:54;13.87;;;6.60;;
16826;SDS011;8530;49.540;8.576;2022-10-30T11:15:27;11.60;;;4.90;;
16826;SDS011;8530;49.540;8.576;2022-10-30T11:18:03;11.97;;;6.00;;
16826;SDS011;8530;49.540;8.576;2022-10-30T11:20:35;13.37;;;5.60;;
16826;SDS011;8530;49.540;8.576;2022-10-30T11:26:02;19.23;;;6.03;;
16826;SDS011;8530;49.540;8.576;2022-10-30T11:28:34;10.27;;;5.50;;
16826;SDS011;8530;49.540;8.576;2022-10-30T11:31:15;18.77;;;6.00;;
16826;SDS011;8530;49.540;8.576;2022-10-30T11:33:45;11.80;;;6.30;;
16826;SDS011;8530;49.540;8.576;2022-10-30T11:36:13;22.03;;;6.03;;
16826;SDS011;8530;49.540;8.576;2022-10-30T11:38:41;20.80;;;5.43;;
16826;SDS011;8530;49.540;8.576;2022-10-30T11:41:07;16.63;;;5.60;;
16826;SDS011;8530;49.540;8.576;2022-10-30T11:43:35;6.80;;;3.80;;
16826;SDS011;8530;49.540;8.576;2022-10-30T11:46:05;14.53;;;5.50;;
16826;SDS011;8530;49.540;8.576;2022-10-30T11:48:35;13.10;;;5.10;;
16826;SDS011;8530;49.540;8.576;2022-10-30T11:51:05;12.33;;;6.00;;
16826;SDS011;8530;49.540;8.576;2022-10-30T11:53:33;9.87;;;5.00;;
16826;SDS011;8530;49.540;8.576;2022-10-30T11:56:09;11.60;;;4.10;;
16826;SDS011;8530;49.540;8.576;2022-10-30T11:58:41;12.10;;;5.80;;
16826;SDS011;8530;49.540;8.576;2022-10-30T12:01:13;11.40;;;4.43;;
16826;SDS011;8530;49.540;8.576;2022-10-30T12:03:44;9.53;;;5.73;;
16826;SDS011;8530;49.540;8.576;2022-10-30T12:06:17;20.37;;;6.67;;
16826;SDS011;8530;49.540;8.576;2022-10-30T12:08:57;19.67;;;7.67;;
16826;SDS011;8530;49.540;8.576;2022-10-30T12:11:26;17.43;;;6.50;;
16826;SDS011;8530;49.540;8.576;2022-10-30T12:13:54;9.90;;;4.57;;
16826;SDS011;8530;49.540;8.576;2022-10-30T12:16:22;19.30;;;6.33;;
16826;SDS011;8530;49.540;8.576;2022-10-30T12:18:51;14.27;;;5.63;;
16826;SDS011;8530;49.540;8.576;2022-10-30T12:21:23;8.80;;;4.90;;
16826;SDS011;8530;49.540;8.576;2022-10-30T12:23:53;21.03;;;4.90;;
16826;SDS011;8530;49.540;8.576;2022-10-30T12:26:22;9.20;;;4.53;;
16826;SDS011;8530;49.540;8.576;2022-10-30T12:28:53;10.27;;;4.70;;
16826;SDS011;8530;49.540;8.576;2022-10-30T12:31:24;8.77;;;5.07;;
16826;SDS011;8530;49.540;8.576;2022-10-30T12:34:01;10.20;;;5.07;;
16826;SDS011;8530;49.540;8.576;2022-10-30T12:36:35;8.80;;;4.47;;
16826;SDS011;8530;49.540;8.576;2022-10-30T12:39:09;17.33;;;5.67;;
16826;SDS011;8530;49.540;8.576;2022-10-30T12:41:39;13.00;;;5.20;;
16826;SDS011;8530;49.540;8.576;2022-10-30T12:44:09;11.20;;;6.30;;
16826;SDS011;8530;49.540;8.576;2022-10-30T12:46:41;10.50;;;5.00;;
16826;SDS011;8530;49.540;8.576;2022-10-30T12:49:13;13.40;;;4.73;;
16826;SDS011;8530;49.540;8.576;2022-10-30T12:51:46;17.10;;;4.67;;
16826;SDS011;8530;49.540;8.576;2022-10-30T12:54:19;12.77;;;5.57;;
16826;SDS011;8530;49.540;8.576;2022-10-30T12:56:59;12.03;;;4.27;;
16826;SDS011;8530;49.540;8.576;2022-10-30T12:59:34;16.43;;;5.93;;
16826;SDS011;8530;49.540;8.576;2022-10-30T13:02:11;12.60;;;4.37;;
16826;SDS011;8530;49.540;8.576;2022-10-30T13:04:44;8.70;;;3.97;;
16826;SDS011;8530;49.540;8.576;2022-10-30T13:07:17;12.00;;;4.63;;
16826;SDS011;8530;49.540;8.576;2022-10-30T13:09:55;10.70;;;4.80;;
16826;SDS011;8530;49.540;8.576;2022-10-30T13:12:29;13.50;;;3.70;;
16826;SDS011;8530;49.540;8.576;2022-10-30T13:15:00;11.10;;;3.97;;
16826;SDS011;8530;49.540;8.576;2022-10-30T13:17:29;7.60;;;4.10;;
16826;SDS011;8530;49.540;8.576;2022-10-30T13:19:56;8.37;;;4.27;;
16826;SDS011;8530;49.540;8.576;2022-10-30T13:22:25;11.03;;;3.80;;
16826;SDS011;8530;49.540;8.576;2022-10-30T13:24:58;6.23;;;4.17;;
16826;SDS011;8530;49.540;8.576;2022-10-30T13:27:29;8.67;;;4.10;;
16826;SDS011;8530;49.540;8.576;2022-10-30T13:30:05;15.30;;;4.47;;
16826;SDS011;8530;49.540;8.576;2022-10-30T13:32:40;21.43;;;3.90;;
16826;SDS011;8530;49.540;8.576;2022-10-30T13:35:21;16.53;;;4.37;;
16826;SDS011;8530;49.540;8.576;2022-10-30T13:37:56;6.33;;;3.80;;
16826;SDS011;8530;49.540;8.576;2022-10-30T13:40:29;9.30;;;4.83;;
16826;SDS011;8530;49.540;8.576;2022-10-30T13:43:05;5.87;;;4.13;;
16826;SDS011;8530;49.540;8.576;2022-10-30T13:45:48;11.13;;;4.00;;
16826;SDS011;8530;49.540;8.576;2022-10-30T13:48:25;15.57;;;5.33;;
16826;SDS011;8530;49.540;8.576;2022-10-30T13:51:07;10.50;;;5.30;;
16826;SDS011;8530;49.540;8.576;2022-10-30T13:53:52;7.73;;;3.70;;
16826;SDS011;8530;49.540;8.576;2022-10-30T13:56:25;8.10;;;4.70;;
16826;SDS011;8530;49.540;8.576;2022-10-30T13:58:56;6.83;;;3.97;;
16826;SDS011;8530;49.540;8.576;2022-10-30T14:01:32;7.90;;;4.33;;
16826;SDS011;8530;49.540;8.576;2022-10-30T14:04:05;10.90;;;4.53;;
16826;SDS011;8530;49.540;8.576;2022-10-30T14:06:40;11.00;;;3.90;;
16826;SDS011;8530;49.540;8.576;2022-10-30T14:09:18;7.90;;;5.40;;
16826;SDS011;8530;49.540;8.576;2022-10-30T14:11:51;9.50;;;4.43;;
16826;SDS011;8530;49.540;8.576;2022-10-30T14:14:25;15.80;;;5.53;;
16826;SDS011;8530;49.540;8.576;2022-10-30T14:17:10;9.77;;;4.63;;
16826;SDS011;8530;49.540;8.576;2022-10-30T14:25:39;13.07;;;4.87;;
16826;SDS011;8530;49.540;8.576;2022-10-30T14:28:16;17.97;;;6.67;;
16826;SDS011;8530;49.540;8.576;2022-10-30T14:30:44;11.27;;;5.50;;
16826;SDS011;8530;49.540;8.576;2022-10-30T14:36:12;14.70;;;5.40;;
16826;SDS011;8530;49.540;8.576;2022-10-30T14:38:59;11.27;;;5.07;;
16826;SDS011;8530;49.540;8.576;2022-10-30T14:41:49;12.83;;;6.60;;
16826;SDS011;8530;49.540;8.576;2022-10-30T14:50:20;15.63;;;7.73;;
16826;SDS011;8530;49.540;8.576;2022-10-30T14:53:04;14.67;;;6.73;;
16826;SDS011;8530;49.540;8.576;2022-10-30T14:56:02;18.23;;;7.37;;
16826;SDS011;8530;49.540;8.576;2022-10-30T14:58:35;15.83;;;8.30;;
16826;SDS011;8530;49.540;8.576;2022-10-30T15:04:06;11.60;;;7.40;;
16826;SDS011;8530;49.540;8.576;2022-10-30T15:06:47;16.80;;;7.50;;
16826;SDS011;8530;49.540;8.576;2022-10-30T15:09:35;11.90;;;6.90;;
16826;SDS011;8530;49.540;8.576;2022-10-30T15:12:14;16.17;;;6.70;;
16826;SDS011;8530;49.540;8.576;2022-10-30T15:14:53;14.13;;;5.93;;
16826;SDS011;8530;49.540;8.576;2022-10-30T15:17:23;13.27;;;6.00;;
16826;SDS011;8530;49.540;8.576;2022-10-30T15:19:53;12.03;;;5.13;;
16826;SDS011;8530;49.540;8.576;2022-10-30T15:22:21;14.47;;;6.80;;
16826;SDS011;8530;49.540;8.576;2022-10-30T15:24:51;9.67;;;5.20;;
16826;SDS011;8530;49.540;8.576;2022-10-30T15:27:18;10.73;;;5.97;;
16826;SDS011;8530;49.540;8.576;2022-10-30T15:29:49;9.50;;;5.47;;